Time,TemperatureF,DewpointF,PressureIn,WindDirection,WindDirectionDegrees,WindSpeedMPH,WindSpeedGustMPH,Humidity,HourlyPrecipIn,Conditions,Clouds,dailyrainin,SoftwareType,DateUTC
2013-11-03 00:13:00,40.0,33.0,30.00,North,360,0.0,0.0,76,0.00,,,0.00,,2013-11-03 05:13:00,
2013-11-03 00:23:00,40.0,33.0,30.00,North,360,0.0,0.0,76,0.00,,,0.00,,2013-11-03 05:23:00,
2013-11-03 00:43:00,40.0,33.0,29.99,North,360,0.0,0.0,77,0.00,,,0.00,,2013-11-03 05:43:00,
2013-11-03 00:53:00,40.0,34.0,29.99,North,360,0.0,0.0,78,0.00,,,0.00,,2013-11-03 05:53:00,
2013-11-03 01:03:00,40.0,34.0,29.99,North,360,0.0,0.0,78,0.00,,,0.00,,2013-11-03 06:03:00,
2013-11-03 01:12:00,40.0,34.0,29.99,North,360,0.0,0.0,78,0.00,,,0.00,,2013-11-03 06:12:00,
2013-11-03 01:23:00,39.0,33.0,29.98,North,360,0.0,0.0,78,0.00,,,0.00,,2013-11-03 06:23:00,
2013-11-03 01:43:00,38.0,32.0,29.98,North,360,0.0,0.0,79,0.00,,,0.00,,2013-11-03 06:43:00,
2013-11-03 01:52:00,38.0,32.0,29.98,North,360,0.0,0.0,79,0.00,,,0.00,,2013-11-03 06:52:00,
2013-11-03 01:11:00,38.0,32.0,29.98,North,360,0.0,0.0,79,0.00,,,0.00,,2013-11-03 07:11:00,
2013-11-03 01:22:00,38.0,32.0,29.99,North,360,0.0,0.0,80,0.00,,,0.00,,2013-11-03 07:22:00,
2013-11-03 01:32:00,38.0,32.0,29.99,North,360,0.0,0.0,80,0.00,,,0.00,,2013-11-03 07:32:00,
2013-11-03 01:42:00,38.0,32.0,29.99,North,360,0.0,0.0,80,0.00,,,0.00,,2013-11-03 07:42:00,
2013-11-03 01:52:00,37.0,32.0,29.99,North,360,0.0,0.0,81,0.00,,,0.00,,2013-11-03 07:52:00,
2013-11-03 02:11:00,37.0,32.0,29.99,North,360,0.0,0.0,81,0.00,,,0.00,,2013-11-03 08:11:00,
2013-11-03 02:21:00,37.0,32.0,29.99,North,360,0.0,0.0,82,0.00,,,0.00,,2013-11-03 08:21:00,
2013-11-03 02:42:00,36.0,31.0,29.98,North,360,0.0,0.0,82,0.00,,,0.00,,2013-11-03 08:42:00,
2013-11-03 02:52:00,36.0,31.0,29.99,North,360,0.0,0.0,82,0.00,,,0.00,,2013-11-03 08:52:00,
2013-11-03 03:02:00,36.0,31.0,29.99,North,360,0.0,0.0,82,0.00,,,0.00,,2013-11-03 09:02:00,
2013-11-03 03:12:00,36.0,31.0,29.99,North,360,0.0,0.0,82,0.00,,,0.00,,2013-11-03 09:12:00,
2013-11-03 03:22:00,36.0,31.0,29.99,North,360,0.0,0.0,82,0.00,,,0.00,,2013-11-03 09:22:00,
2013-11-03 03:53:00,36.0,32.0,29.99,North,360,0.0,0.0,84,0.00,,,0.00,,2013-11-03 09:53:00,
2013-11-03 04:03:00,36.0,32.0,29.99,North,360,0.0,0.0,84,0.00,,,0.00,,2013-11-03 10:03:00,
2013-11-03 04:13:00,36.0,32.0,29.99,North,360,0.0,0.0,84,0.00,,,0.00,,2013-11-03 10:13:00,
2013-11-03 04:23:00,35.0,31.0,29.99,North,360,0.0,0.0,84,0.00,,,0.00,,2013-11-03 10:23:00,
2013-11-03 04:42:00,35.0,31.0,29.99,North,360,0.0,0.0,84,0.00,,,0.00,,2013-11-03 10:42:00,
2013-11-03 04:52:00,35.0,31.0,29.98,North,360,0.0,0.0,84,0.00,,,0.00,,2013-11-03 10:52:00,
2013-11-03 05:22:00,36.0,32.0,30.00,South,180,0.0,1.0,85,0.00,,,0.00,,2013-11-03 11:22:00,
2013-11-03 05:43:00,35.0,31.0,30.00,South,180,0.0,0.0,85,0.00,,,0.00,,2013-11-03 11:43:00,
2013-11-03 05:52:00,35.0,31.0,30.01,South,180,0.0,0.0,86,0.00,,,0.00,,2013-11-03 11:52:00,
2013-11-03 06:12:00,35.0,31.0,30.01,SW,225,0.0,0.0,86,0.00,,,0.00,,2013-11-03 12:12:00,
2013-11-03 06:22:00,35.0,31.0,30.00,SW,225,0.0,0.0,86,0.00,,,0.00,,2013-11-03 12:22:00,
2013-11-03 06:42:00,34.0,30.0,30.00,SW,225,0.0,0.0,86,0.00,,,0.00,,2013-11-03 12:42:00,
2013-11-03 06:52:00,34.0,30.0,30.01,SW,225,0.0,0.0,86,0.00,,,0.00,,2013-11-03 12:52:00,
2013-11-03 07:12:00,34.0,30.0,30.01,SW,225,0.0,0.0,86,0.00,,,0.00,,2013-11-03 13:12:00,
2013-11-03 07:21:00,34.0,31.0,30.00,NW,315,0.0,0.0,87,0.00,,,0.00,,2013-11-03 13:21:00,
2013-11-03 07:32:00,34.0,31.0,30.00,NW,315,0.0,0.0,87,0.00,,,0.00,,2013-11-03 13:32:00,
2013-11-03 07:42:00,34.0,31.0,30.00,NW,315,0.0,0.0,87,0.00,,,0.00,,2013-11-03 13:42:00,
2013-11-03 07:52:00,36.0,33.0,30.01,NW,315,0.0,0.0,88,0.00,,,0.00,,2013-11-03 13:52:00,
2013-11-03 08:12:00,42.0,39.0,30.02,NW,315,0.0,0.0,90,0.00,,,0.00,,2013-11-03 14:12:00,
2013-11-03 08:22:00,44.0,41.0,30.02,NW,315,0.0,0.0,89,0.00,,,0.00,,2013-11-03 14:22:00,
2013-11-03 08:42:00,48.0,42.0,30.03,North,360,0.0,0.0,79,0.00,,,0.00,,2013-11-03 14:42:00,
2013-11-03 08:52:00,49.0,38.0,30.03,West,270,0.0,1.0,65,0.00,,,0.00,,2013-11-03 14:52:00,
2013-11-03 09:22:00,51.0,37.0,30.03,NW,315,0.0,2.0,59,0.00,,,0.00,,2013-11-03 15:22:00,
2013-11-03 09:43:00,54.0,38.0,30.03,North,360,0.0,1.0,54,0.00,,,0.00,,2013-11-03 15:43:00,
2013-11-03 09:53:00,57.0,34.0,30.02,North,360,0.0,2.0,42,0.00,,,0.00,,2013-11-03 15:53:00,
2013-11-03 10:23:00,60.0,35.0,30.02,NE,45,0.0,5.0,39,0.00,,,0.00,,2013-11-03 16:23:00,
2013-11-03 18:22:00,55.0,35.0,29.85,NW,315,0.0,0.0,47,0.00,,,0.00,,2013-11-04 00:22:00,
2013-11-03 18:42:00,55.0,37.0,29.85,NW,315,0.0,2.0,50,0.00,,,0.00,,2013-11-04 00:42:00,
2013-11-03 18:52:00,54.0,36.0,29.85,North,360,0.0,1.0,51,0.00,,,0.00,,2013-11-04 00:52:00,
2013-11-03 19:22:00,54.0,37.0,29.85,North,360,0.0,2.0,52,0.00,,,0.00,,2013-11-04 01:22:00,
2013-11-03 19:42:00,55.0,36.0,29.85,North,360,0.0,2.0,48,0.00,,,0.00,,2013-11-04 01:42:00,
2013-11-03 19:52:00,55.0,36.0,29.86,North,360,0.0,2.0,48,0.00,,,0.00,,2013-11-04 01:52:00,
2013-11-03 20:12:00,55.0,36.0,29.85,NW,315,0.0,1.0,48,0.00,,,0.00,,2013-11-04 02:12:00,
2013-11-03 20:22:00,55.0,36.0,29.85,NW,315,0.0,1.0,48,0.00,,,0.00,,2013-11-04 02:22:00,
2013-11-03 20:32:00,55.0,36.0,29.85,NW,315,0.0,1.0,48,0.00,,,0.00,,2013-11-04 02:32:00,
2013-11-03 20:42:00,55.0,36.0,29.85,NW,315,0.0,1.0,48,0.00,,,0.00,,2013-11-04 02:42:00,
2013-11-03 20:53:00,54.0,35.0,29.87,North,360,0.0,1.0,49,0.00,,,0.00,,2013-11-04 02:53:00,
2013-11-03 21:11:00,54.0,36.0,29.88,North,360,0.0,0.0,50,0.00,,,0.00,,2013-11-04 03:11:00,
2013-11-03 21:21:00,54.0,36.0,29.88,North,360,0.0,0.0,50,0.00,,,0.00,,2013-11-04 03:21:00,
2013-11-03 21:44:00,53.0,36.0,29.88,North,360,0.0,0.0,53,0.00,,,0.00,,2013-11-04 03:44:00,
2013-11-03 21:54:00,53.0,37.0,29.88,NE,45,0.0,0.0,55,0.00,,,0.00,,2013-11-04 03:54:00,
2013-11-03 22:13:00,53.0,38.0,29.88,North,360,0.0,1.0,57,0.00,,,0.00,,2013-11-04 04:13:00,
2013-11-03 22:24:00,53.0,38.0,29.86,NW,315,0.0,1.0,57,0.00,,,0.00,,2013-11-04 04:24:00,
2013-11-03 22:43:00,53.0,38.0,29.86,NW,315,0.0,2.0,56,0.00,,,0.00,,2013-11-04 04:43:00,
2013-11-03 22:53:00,54.0,38.0,29.86,North,360,0.0,2.0,55,0.00,,,0.00,,2013-11-04 04:53:00,
2013-11-03 23:23:00,54.0,38.0,29.85,North,360,0.0,2.0,54,0.00,,,0.00,,2013-11-04 05:23:00,
2013-11-03 23:44:00,54.0,38.0,29.86,NW,315,0.0,1.0,55,0.00,,,0.00,,2013-11-04 05:44:00,
2013-11-03 23:53:00,53.0,38.0,29.85,NW,315,0.0,1.0,57,0.00,,,0.00,,2013-11-04 05:53:00,